Time;durP1;ratioP1;P1;durP2;ratioP2;P2;SDS_P1;SDS_P2;PMS_P1;PMS_P2;Temp;Humidity;BMP_temperature;BMP_pressure;BME280_temperature;BME280_humidity;BME280_pressure;Samples;Min_cycle;Max_cycle;Signal;HPM_P1;HPM_P2
2024/01/21 00:00:31;;;;;;;35.27;16.83;;;;;;;;;;5076667;28;20436;-66
2024/01/21 00:02:58;;;;;;;30.10;15.20;;;;;;;;;;5042279;28;20460;-66
2024/01/21 00:05:24;;;;;;;30.87;14.83;;;;;;;;;;5076619;28;20432;-66
2024/01/21 00:07:51;;;;;;;28.60;13.50;;;;;;;;;;5076525;28;20438;-66
2024/01/21 00:10:20;;;;;;;29.20;14.30;;;;;;;;;;5058507;28;20448;-66
2024/01/21 00:12:46;;;;;;;32.97;14.93;;;;;;;;;;5058363;28;20508;-66
2024/01/21 00:15:14;;;;;;;30.10;14.43;;;;;;;;;;5058379;28;20435;-66
2024/01/21 00:17:41;;;;;;;32.33;14.30;;;;;;;;;;5076065;28;20841;-66
2024/01/21 00:20:08;;;;;;;31.83;14.67;;;;;;;;;;5074959;28;20527;-66
2024/01/21 00:22:52;;;;;;;33.43;15.03;;;;;;;;;;5075104;28;20450;-66
2024/01/21 00:25:18;;;;;;;32.87;15.30;;;;;;;;;;5041711;28;20915;-66
2024/01/21 00:27:45;;;;;;;30.97;14.60;;;;;;;;;;5076036;28;20915;-66
2024/01/21 00:30:12;;;;;;;32.80;15.30;;;;;;;;;;5075333;28;20754;-66
2024/01/21 00:32:38;;;;;;;32.63;15.33;;;;;;;;;;5074595;28;20429;-66
2024/01/21 00:35:23;;;;;;;33.13;14.03;;;;;;;;;;5075361;28;20381;-66
2024/01/21 00:37:50;;;;;;;31.17;13.00;;;;;;;;;;5075748;28;20479;-66
2024/01/21 00:40:17;;;;;;;34.80;15.07;;;;;;;;;;5074586;28;20779;-66
2024/01/21 00:42:43;;;;;;;26.23;13.77;;;;;;;;;;5057888;28;20423;-66
2024/01/21 00:45:10;;;;;;;32.50;13.73;;;;;;;;;;5057435;28;20425;-66
2024/01/21 00:47:54;;;;;;;32.23;13.60;;;;;;;;;;5074871;28;20883;-66
2024/01/21 00:50:22;;;;;;;35.93;13.83;;;;;;;;;;5057878;28;20561;-66
2024/01/21 00:53:06;;;;;;;34.87;14.20;;;;;;;;;;5058719;28;20911;-66
2024/01/21 00:55:33;;;;;;;39.63;15.93;;;;;;;;;;5075723;28;20409;-66
2024/01/21 00:58:01;;;;;;;39.93;15.23;;;;;;;;;;5058333;28;20479;-66
2024/01/21 01:00:28;;;;;;;38.33;15.50;;;;;;;;;;5075428;28;20428;-66
2024/01/21 01:02:55;;;;;;;34.03;14.70;;;;;;;;;;5074205;28;20448;-66
2024/01/21 01:05:22;;;;;;;37.07;15.93;;;;;;;;;;5057568;28;20427;-66
2024/01/21 01:07:49;;;;;;;34.53;15.83;;;;;;;;;;5057761;28;20858;-66
2024/01/21 01:10:16;;;;;;;41.73;16.47;;;;;;;;;;5074297;28;20416;-66
2024/01/21 01:53:16;;;;;;;30.13;12.50;;;;;;;;;;5074757;28;20439;-67
2024/01/21 01:55:43;;;;;;;21.50;9.20;;;;;;;;;;5056484;28;20437;-67
2024/01/21 01:58:28;;;;;;;25.40;11.63;;;;;;;;;;5059039;28;20456;-67
2024/01/21 02:00:55;;;;;;;22.87;10.13;;;;;;;;;;5074162;28;20486;-67
2024/01/21 02:03:23;;;;;;;22.57;9.27;;;;;;;;;;5039988;28;20440;-67
2024/01/21 02:05:50;;;;;;;16.50;8.43;;;;;;;;;;5057259;28;20758;-67
2024/01/21 02:08:17;;;;;;;20.60;9.43;;;;;;;;;;5072560;28;20437;-67
2024/01/21 02:10:43;;;;;;;22.20;8.97;;;;;;;;;;5056225;28;20499;-67
2024/01/21 02:13:10;;;;;;;20.47;9.67;;;;;;;;;;5052746;28;20487;-67
2024/01/21 02:15:37;;;;;;;18.37;7.77;;;;;;;;;;5036200;28;20940;-67
2024/01/21 02:18:04;;;;;;;15.53;7.27;;;;;;;;;;5053832;28;20456;-67
2024/01/21 02:20:30;;;;;;;17.63;8.63;;;;;;;;;;5052783;28;20454;-67
2024/01/21 02:22:57;;;;;;;19.43;8.00;;;;;;;;;;5053772;28;20429;-67
2024/01/21 02:25:24;;;;;;;18.33;7.97;;;;;;;;;;5036207;28;20452;-67
2024/01/21 02:27:51;;;;;;;25.50;11.07;;;;;;;;;;5053918;28;20413;-67
2024/01/21 02:30:18;;;;;;;26.47;11.03;;;;;;;;;;5052712;28;20962;-67
2024/01/21 02:32:45;;;;;;;27.83;13.77;;;;;;;;;;5037034;28;20430;-67
2024/01/21 02:35:11;;;;;;;26.57;13.27;;;;;;;;;;5054266;28;20506;-67
2024/01/21 02:37:40;;;;;;;26.80;12.83;;;;;;;;;;5035932;28;20525;-67
2024/01/21 02:40:06;;;;;;;26.63;13.30;;;;;;;;;;5053581;28;20414;-67
2024/01/21 02:42:33;;;;;;;30.47;14.23;;;;;;;;;;5054165;28;20429;-67
2024/01/21 02:45:00;;;;;;;33.67;14.20;;;;;;;;;;5036680;28;20413;-67
2024/01/21 02:47:26;;;;;;;32.23;13.77;;;;;;;;;;5003292;28;20535;-67
2024/01/21 02:49:53;;;;;;;39.10;16.67;;;;;;;;;;5054222;28;20421;-67
2024/01/21 02:52:20;;;;;;;43.50;20.30;;;;;;;;;;5053401;28;20433;-67
2024/01/21 02:54:46;;;;;;;40.60;19.50;;;;;;;;;;5035680;28;20437;-67
2024/01/21 02:57:14;;;;;;;39.90;18.00;;;;;;;;;;5053734;28;20962;-67
2024/01/21 02:59:40;;;;;;;36.23;17.40;;;;;;;;;;5035741;28;20429;-67
2024/01/21 03:02:08;;;;;;;40.53;18.50;;;;;;;;;;5053226;28;20714;-68
2024/01/21 03:04:34;;;;;;;44.87;19.20;;;;;;;;;;5035867;28;20429;-67
2024/01/21 03:07:01;;;;;;;36.57;17.37;;;;;;;;;;5053482;28;20463;-67
2024/01/21 03:09:28;;;;;;;21.67;10.17;;;;;;;;;;5054952;28;20459;-68
2024/01/21 03:11:56;;;;;;;25.27;13.10;;;;;;;;;;5057916;28;20440;-67
2024/01/21 03:14:23;;;;;;;18.27;8.97;;;;;;;;;;5072003;28;20497;-67
2024/01/21 03:16:51;;;;;;;19.07;9.33;;;;;;;;;;5043235;28;20448;-67
2024/01/21 03:19:17;;;;;;;21.73;10.23;;;;;;;;;;5059228;28;20462;-66
2024/01/21 03:21:44;;;;;;;25.07;12.57;;;;;;;;;;5077817;28;20440;-65
2024/01/21 03:24:28;;;;;;;20.50;9.63;;;;;;;;;;5059450;28;20405;-65
2024/01/21 03:26:55;;;;;;;19.63;8.23;;;;;;;;;;5077071;28;20541;-66
2024/01/21 03:29:21;;;;;;;16.80;7.43;;;;;;;;;;5059657;28;20456;-66
2024/01/21 03:31:48;;;;;;;19.77;8.80;;;;;;;;;;5077713;28;20416;-66
2024/01/21 03:34:15;;;;;;;15.20;7.93;;;;;;;;;;5059410;28;20436;-67
2024/01/21 03:36:41;;;;;;;15.47;7.80;;;;;;;;;;5076738;28;20413;-67
2024/01/21 03:39:08;;;;;;;17.87;7.90;;;;;;;;;;5077141;28;20460;-67
2024/01/21 03:41:35;;;;;;;19.27;8.27;;;;;;;;;;5059073;28;20775;-67
2024/01/21 03:44:02;;;;;;;14.87;8.20;;;;;;;;;;5076004;28;20539;-67
2024/01/21 03:46:28;;;;;;;16.13;8.13;;;;;;;;;;5043589;28;20759;-67
2024/01/21 03:48:55;;;;;;;16.23;8.13;;;;;;;;;;5058928;28;20476;-67
2024/01/21 03:51:22;;;;;;;17.57;8.33;;;;;;;;;;5058926;28;20452;-66
2024/01/21 03:53:49;;;;;;;19.33;8.57;;;;;;;;;;5076587;28;20460;-66
2024/01/21 03:56:16;;;;;;;20.60;8.97;;;;;;;;;;5075890;28;20428;-66
2024/01/21 03:58:42;;;;;;;19.10;8.43;;;;;;;;;;5076850;28;20521;-66
2024/01/21 04:01:09;;;;;;;21.60;9.27;;;;;;;;;;5076697;28;20412;-67
2024/01/21 04:03:36;;;;;;;20.83;8.80;;;;;;;;;;5075090;28;20464;-66
2024/01/21 04:06:03;;;;;;;19.50;8.90;;;;;;;;;;5075623;28;20759;-67
2024/01/21 04:08:30;;;;;;;21.70;9.63;;;;;;;;;;5058918;28;20436;-67
2024/01/21 04:10:57;;;;;;;19.40;8.90;;;;;;;;;;5058584;28;20463;-67
2024/01/21 04:13:24;;;;;;;25.10;10.40;;;;;;;;;;5058610;28;20506;-67
2024/01/21 04:15:51;;;;;;;20.83;9.20;;;;;;;;;;5076087;28;20428;-67
2024/01/21 04:18:18;;;;;;;20.33;9.60;;;;;;;;;;5059077;28;20464;-66
2024/01/21 04:21:02;;;;;;;22.63;9.67;;;;;;;;;;5047177;28;20493;-67
2024/01/21 04:23:29;;;;;;;21.77;9.20;;;;;;;;;;5041776;28;20436;-67
2024/01/21 04:25:55;;;;;;;21.20;9.20;;;;;;;;;;5075962;28;20428;-68
2024/01/21 04:28:26;;;;;;;24.40;9.53;;;;;;;;;;5059332;28;20487;-67
2024/01/21 04:30:53;;;;;;;23.83;9.40;;;;;;;;;;5058247;28;20532;-67
2024/01/21 04:33:20;;;;;;;25.67;10.43;;;;;;;;;;5075856;28;20441;-67
2024/01/21 04:35:47;;;;;;;27.03;9.93;;;;;;;;;;5076140;28;20412;-68
2024/01/21 04:38:13;;;;;;;25.90;10.20;;;;;;;;;;5058434;28;20448;-68
2024/01/21 04:40:40;;;;;;;22.30;6.90;;;;;;;;;;5057890;28;20929;-68
2024/01/21 04:43:07;;;;;;;24.03;8.27;;;;;;;;;;5058286;28;20424;-68
2024/01/21 04:45:33;;;;;;;38.90;11.47;;;;;;;;;;5075955;28;20424;-68
2024/01/21 04:48:00;;;;;;;25.97;9.67;;;;;;;;;;5057856;28;20440;-68
2024/01/21 04:50:27;;;;;;;34.07;10.07;;;;;;;;;;5075598;28;20508;-68
2024/01/21 04:52:53;;;;;;;34.63;12.40;;;;;;;;;;5075863;28;20428;-68
2024/01/21 04:55:20;;;;;;;37.10;13.20;;;;;;;;;;5057853;28;20416;-68
2024/01/21 04:57:46;;;;;;;40.03;13.20;;;;;;;;;;5099840;28;20475;-67
2024/01/21 05:00:13;;;;;;;41.60;13.53;;;;;;;;;;5116186;28;20461;-68
2024/01/21 05:02:40;;;;;;;39.93;12.90;;;;;;;;;;5098626;28;20435;-68
2024/01/21 05:05:07;;;;;;;38.80;13.63;;;;;;;;;;5098018;28;20897;-68
2024/01/21 05:07:34;;;;;;;37.17;12.63;;;;;;;;;;5092003;28;20442;-68
2024/01/21 05:10:17;;;;;;;37.93;11.83;;;;;;;;;;5049353;28;20435;-68
2024/01/21 05:12:44;;;;;;;39.17;13.40;;;;;;;;;;5095219;28;20447;-68
2024/01/21 05:15:28;;;;;;;42.00;12.43;;;;;;;;;;5095423;28;20920;-68
2024/01/21 05:17:56;;;;;;;38.23;12.47;;;;;;;;;;5077381;28;20965;-68
2024/01/21 05:20:40;;;;;;;46.10;14.53;;;;;;;;;;5095791;28;20403;-68
2024/01/21 05:23:07;;;;;;;53.33;15.23;;;;;;;;;;5077298;28;20785;-68
2024/01/21 05:25:53;;;;;;;28.67;9.47;;;;;;;;;;5095440;28;20406;-68
2024/01/21 05:28:20;;;;;;;45.43;14.70;;;;;;;;;;5095624;28;20419;-68
2024/01/21 05:30:46;;;;;;;48.53;14.47;;;;;;;;;;5077106;28;20426;-68
2024/01/21 05:33:13;;;;;;;45.90;15.57;;;;;;;;;;5059557;28;20466;-68
2024/01/21 05:35:40;;;;;;;50.00;16.53;;;;;;;;;;5095172;28;20424;-68
2024/01/21 05:38:08;;;;;;;41.53;14.47;;;;;;;;;;5076952;28;20455;-68
2024/01/21 05:40:35;;;;;;;41.27;15.87;;;;;;;;;;5094973;28;20528;-68
2024/01/21 05:43:01;;;;;;;49.17;15.93;;;;;;;;;;5077403;28;20415;-67
2024/01/21 05:45:28;;;;;;;48.17;15.77;;;;;;;;;;5076755;28;20446;-69
2024/01/21 05:47:55;;;;;;;52.93;17.40;;;;;;;;;;5076554;28;20426;-68
2024/01/21 05:50:22;;;;;;;41.57;14.43;;;;;;;;;;5076589;28;20994;-68
2024/01/21 05:52:48;;;;;;;35.23;12.83;;;;;;;;;;5060166;28;20436;-69
2024/01/21 05:55:15;;;;;;;37.57;13.83;;;;;;;;;;5060130;28;20443;-68
2024/01/21 05:57:42;;;;;;;52.17;17.77;;;;;;;;;;5076556;28;20946;-68
2024/01/21 06:00:09;;;;;;;36.83;14.00;;;;;;;;;;5094478;28;20423;-69
2024/01/21 06:02:38;;;;;;;42.00;13.50;;;;;;;;;;5076535;28;20519;-69
2024/01/21 06:05:05;;;;;;;45.17;16.17;;;;;;;;;;5076641;28;20748;-68
2024/01/21 06:07:32;;;;;;;36.97;14.17;;;;;;;;;;5061120;28;20436;-68
2024/01/21 06:09:59;;;;;;;33.80;11.47;;;;;;;;;;5060197;28;20789;-69
2024/01/21 06:12:26;;;;;;;49.40;16.70;;;;;;;;;;5055974;28;20513;-68
2024/01/21 06:14:53;;;;;;;40.73;17.13;;;;;;;;;;5056329;28;20482;-69
2024/01/21 06:17:19;;;;;;;29.67;10.43;;;;;;;;;;5039858;28;20814;-68
2024/01/21 06:19:46;;;;;;;44.17;15.77;;;;;;;;;;5022120;28;21039;-68
2024/01/21 06:22:13;;;;;;;48.37;15.63;;;;;;;;;;5039824;28;20934;-68
2024/01/21 06:24:40;;;;;;;46.80;17.20;;;;;;;;;;5056690;28;20463;-68
2024/01/21 06:27:07;;;;;;;33.20;12.00;;;;;;;;;;5056513;28;20458;-68
2024/01/21 06:29:34;;;;;;;42.13;15.03;;;;;;;;;;5056354;28;20426;-68
2024/01/21 06:32:00;;;;;;;36.60;12.77;;;;;;;;;;5056985;28;20432;-68
2024/01/21 06:34:28;;;;;;;39.57;12.97;;;;;;;;;;5040188;28;20456;-68
2024/01/21 06:36:55;;;;;;;50.33;16.60;;;;;;;;;;5039871;28;20439;-68
2024/01/21 06:39:21;;;;;;;47.33;18.37;;;;;;;;;;5056343;28;20475;-70
2024/01/21 06:41:48;;;;;;;41.60;15.60;;;;;;;;;;5056511;28;20419;-68
2024/01/21 06:44:15;;;;;;;38.67;13.27;;;;;;;;;;5055000;28;20427;-68
2024/01/21 06:46:42;;;;;;;52.47;18.83;;;;;;;;;;5056190;28;20419;-68
2024/01/21 06:49:09;;;;;;;51.63;19.20;;;;;;;;;;5073703;28;20478;-67
2024/01/21 06:51:53;;;;;;;44.17;15.27;;;;;;;;;;5040565;28;20441;-68
2024/01/21 06:54:21;;;;;;;42.27;15.33;;;;;;;;;;5025319;28;20432;-69
2024/01/21 06:56:47;;;;;;;24.67;9.87;;;;;;;;;;5056067;28;20420;-68
2024/01/21 06:59:14;;;;;;;51.90;17.97;;;;;;;;;;5056146;28;20456;-68
2024/01/21 07:01:41;;;;;;;31.10;12.93;;;;;;;;;;5056348;28;20439;-69
2024/01/21 07:04:26;;;;;;;16.40;7.30;;;;;;;;;;5028207;28;20482;-67
2024/01/21 07:06:52;;;;;;;44.77;18.67;;;;;;;;;;5055890;28;20420;-67
2024/01/21 07:09:20;;;;;;;45.40;16.13;;;;;;;;;;5023115;28;20435;-69
2024/01/21 07:11:52;;;;;;;24.23;8.73;;;;;;;;;;5039484;28;20469;-68
2024/01/21 07:14:34;;;;;;;30.43;12.13;;;;;;;;;;5021122;28;20444;-68
2024/01/21 07:17:03;;;;;;;33.57;14.17;;;;;;;;;;5040045;28;20523;-69
2024/01/21 07:19:30;;;;;;;19.93;7.70;;;;;;;;;;5036336;28;20516;-69
2024/01/21 07:21:58;;;;;;;17.50;7.60;;;;;;;;;;5018587;28;20446;-68
2024/01/21 07:24:27;;;;;;;15.70;6.97;;;;;;;;;;5003388;28;20448;-68
2024/01/21 07:26:54;;;;;;;26.63;10.23;;;;;;;;;;5035630;28;20457;-69
2024/01/21 07:29:21;;;;;;;20.93;8.13;;;;;;;;;;5036435;28;20887;-69
2024/01/21 07:31:48;;;;;;;20.53;9.67;;;;;;;;;;5035785;28;20468;-68
2024/01/21 07:34:15;;;;;;;22.70;9.50;;;;;;;;;;5053661;28;20932;-67
2024/01/21 07:36:42;;;;;;;28.53;11.20;;;;;;;;;;5035795;28;20445;-70
2024/01/21 07:39:09;;;;;;;36.37;13.47;;;;;;;;;;5036985;28;20529;-68
2024/01/21 07:41:36;;;;;;;18.97;7.50;;;;;;;;;;5029276;28;20543;-69
2024/01/21 07:44:03;;;;;;;15.93;7.27;;;;;;;;;;5029250;28;20915;-67
2024/01/21 07:46:30;;;;;;;16.17;8.13;;;;;;;;;;5030930;28;20496;-68
2024/01/21 07:48:58;;;;;;;25.40;10.73;;;;;;;;;;5046649;28;20412;-68
2024/01/21 07:51:26;;;;;;;20.50;8.77;;;;;;;;;;5046870;28;20420;-67
2024/01/21 07:53:53;;;;;;;19.63;7.73;;;;;;;;;;5064010;28;20419;-68
2024/01/21 07:56:20;;;;;;;20.73;7.63;;;;;;;;;;5066531;28;20428;-67
2024/01/21 07:58:47;;;;;;;22.37;11.20;;;;;;;;;;5049928;28;20479;-67
2024/01/21 08:05:14;;;;;;;13.93;7.60;;;;;;;;;;5061258;28;20411;-67
2024/01/21 08:11:40;;;;;;;10.93;5.27;;;;;;;;;;5067780;28;20462;-67
2024/01/21 08:14:07;;;;;;;21.17;8.20;;;;;;;;;;5033007;28;20518;-67
2024/01/21 08:16:33;;;;;;;16.90;5.77;;;;;;;;;;5033000;28;20433;-68
2024/01/21 08:19:00;;;;;;;22.63;9.63;;;;;;;;;;5049216;28;20471;-67
2024/01/21 08:21:27;;;;;;;14.37;6.93;;;;;;;;;;5049102;28;20471;-66
2024/01/21 08:23:54;;;;;;;16.17;7.33;;;;;;;;;;5067511;28;21002;-67
2024/01/21 08:26:21;;;;;;;20.20;8.07;;;;;;;;;;5067098;28;20416;-67
2024/01/21 08:28:48;;;;;;;10.50;5.57;;;;;;;;;;5032749;28;20424;-67
2024/01/21 08:31:16;;;;;;;12.10;5.80;;;;;;;;;;5032674;28;20444;-67
2024/01/21 08:33:44;;;;;;;14.53;5.80;;;;;;;;;;5048959;28;20444;-68
2024/01/21 08:36:12;;;;;;;20.07;8.67;;;;;;;;;;5066724;28;20438;-68
2024/01/21 08:38:56;;;;;;;11.27;6.50;;;;;;;;;;5022934;28;20467;-68
2024/01/21 08:41:22;;;;;;;12.40;5.77;;;;;;;;;;5033212;28;20439;-68
2024/01/21 08:44:08;;;;;;;16.90;7.27;;;;;;;;;;5021346;28;21806;-68
2024/01/21 08:46:36;;;;;;;16.13;7.30;;;;;;;;;;5032576;28;20509;-68
2024/01/21 08:49:03;;;;;;;14.30;6.73;;;;;;;;;;5067333;28;20420;-69
2024/01/21 08:51:30;;;;;;;20.17;8.57;;;;;;;;;;5067259;28;20421;-67
2024/01/21 08:53:57;;;;;;;17.50;7.17;;;;;;;;;;5048856;28;20451;-67
2024/01/21 08:56:25;;;;;;;15.33;8.03;;;;;;;;;;5049154;28;20482;-67
2024/01/21 08:58:52;;;;;;;17.60;6.13;;;;;;;;;;5048792;28;20477;-67
2024/01/21 09:01:19;;;;;;;15.13;7.13;;;;;;;;;;5048412;28;20436;-67
2024/01/21 09:03:46;;;;;;;15.97;7.43;;;;;;;;;;5048316;28;20436;-67
2024/01/21 09:06:13;;;;;;;14.77;6.87;;;;;;;;;;5031272;28;20474;-69
2024/01/21 09:08:40;;;;;;;13.37;5.00;;;;;;;;;;5031055;28;20527;-68
2024/01/21 09:11:07;;;;;;;14.33;6.80;;;;;;;;;;5031830;28;20433;-69
2024/01/21 09:13:34;;;;;;;12.77;6.43;;;;;;;;;;5060683;28;20444;-68
2024/01/21 09:16:01;;;;;;;18.77;8.30;;;;;;;;;;5034982;28;20443;-69
2024/01/21 09:18:30;;;;;;;10.73;4.67;;;;;;;;;;5051833;28;20984;-68
2024/01/21 09:20:58;;;;;;;17.70;8.20;;;;;;;;;;5086630;28;20431;-68
2024/01/21 09:23:26;;;;;;;16.97;7.57;;;;;;;;;;5051866;28;20820;-68
2024/01/21 09:25:53;;;;;;;19.20;7.50;;;;;;;;;;5068097;28;20466;-68
2024/01/21 09:28:20;;;;;;;19.00;8.83;;;;;;;;;;5086638;28;20431;-68
2024/01/21 09:30:47;;;;;;;15.83;7.20;;;;;;;;;;5067927;28;20982;-68
2024/01/21 09:33:15;;;;;;;17.63;8.93;;;;;;;;;;5067386;28;20848;-70
2024/01/21 09:35:42;;;;;;;12.53;5.67;;;;;;;;;;5051086;28;22008;-70
2024/01/21 09:38:14;;;;;;;17.03;7.00;;;;;;;;;;5051338;28;20297;-69
2024/01/21 09:40:41;;;;;;;15.17;7.07;;;;;;;;;;5039384;28;20692;-69
2024/01/21 09:43:08;;;;;;;18.13;7.50;;;;;;;;;;5050905;28;20443;-69
2024/01/21 09:45:36;;;;;;;18.80;6.93;;;;;;;;;;5030512;28;20194;-68
2024/01/21 09:48:04;;;;;;;13.60;6.67;;;;;;;;;;5047823;28;20440;-69
2024/01/21 09:50:32;;;;;;;11.87;6.60;;;;;;;;;;5031476;28;20421;-68
2024/01/21 09:52:59;;;;;;;15.00;7.63;;;;;;;;;;5039071;28;20526;-68
2024/01/21 09:55:26;;;;;;;4.47;3.07;;;;;;;;;;5047938;28;20890;-68
2024/01/21 09:57:53;;;;;;;15.57;7.57;;;;;;;;;;5015307;28;20427;-68
2024/01/21 10:00:20;;;;;;;16.73;7.37;;;;;;;;;;5042923;28;20495;-68
2024/01/21 10:03:04;;;;;;;11.33;5.60;;;;;;;;;;5039454;28;20469;-69
2024/01/21 10:05:32;;;;;;;16.53;7.23;;;;;;;;;;5065294;28;20428;-68
2024/01/21 10:07:59;;;;;;;10.83;4.77;;;;;;;;;;5047417;28;20462;-68
2024/01/21 10:10:26;;;;;;;17.90;4.60;;;;;;;;;;5047414;28;20425;-68
2024/01/21 10:12:53;;;;;;;8.50;4.33;;;;;;;;;;5047004;28;20457;-68
2024/01/21 10:15:20;;;;;;;11.73;4.97;;;;;;;;;;5047295;28;20436;-69
2024/01/21 10:17:47;;;;;;;16.40;7.37;;;;;;;;;;5046686;28;20512;-69
2024/01/21 10:20:13;;;;;;;10.30;4.40;;;;;;;;;;5063383;28;20518;-68
2024/01/21 10:22:41;;;;;;;10.20;4.07;;;;;;;;;;5064755;28;22285;-68
2024/01/21 10:25:08;;;;;;;9.30;4.60;;;;;;;;;;5047650;28;20417;-68
2024/01/21 10:27:47;;;;;;;11.67;4.57;;;;;;;;;;5064924;28;20432;-67
2024/01/21 10:31:33;;;;;;;5.90;3.40;;;;;;;;;;5009480;28;20424;-68
2024/01/21 10:34:52;;;;;;;12.90;6.97;;;;;;;;;;4959931;28;20463;-68
2024/01/21 10:42:00;;;;;;;;;;;;;;;;;;;;;
2024/01/21 10:45:04;;;;;;;9.73;4.00;;;;;;;;;;5003176;28;20434;-68
2024/01/21 10:52:30;;;;;;;11.97;4.90;;;;;;;;;;4992220;28;20573;-68
2024/01/21 10:55:53;;;;;;;12.80;6.73;;;;;;;;;;4993191;28;20476;-68
2024/01/21 11:02:40;;;;;;;8.53;4.10;;;;;;;;;;4910587;29;20428;-68
2024/01/21 11:09:38;;;;;;;14.77;6.77;;;;;;;;;;4858223;29;20755;-68
2024/01/21 11:12:43;;;;;;;10.77;5.83;;;;;;;;;;4873347;29;20456;-68
2024/01/21 11:15:48;;;;;;;;;;;;;;;;;;;;;
2024/01/21 11:23:09;;;;;;;9.23;4.73;;;;;;;;;;4908281;29;20491;-68
2024/01/21 11:25:59;;;;;;;10.77;5.47;;;;;;;;;;4915466;29;20431;-68
2024/01/21 11:29:12;;;;;;;7.17;4.27;;;;;;;;;;4826741;29;20538;-68
2024/01/21 11:36:10;;;;;;;5.50;3.03;;;;;;;;;;4834919;29;20453;-68
2024/01/21 11:39:34;;;;;;;16.90;8.37;;;;;;;;;;4836141;29;20440;-67
2024/01/21 11:42:34;;;;;;;9.33;3.97;;;;;;;;;;4861152;29;20448;-67
2024/01/21 11:49:07;;;;;;;11.27;5.57;;;;;;;;;;4827267;29;20441;-70
2024/01/21 11:52:33;;;;;;;10.03;4.43;;;;;;;;;;4848353;29;20489;-68
2024/01/21 11:55:55;;;;;;;11.60;6.70;;;;;;;;;;4840239;29;20472;-69
2024/01/21 11:59:06;;;;;;;10.43;5.80;;;;;;;;;;4911850;28;20775;-67
2024/01/21 12:02:20;;;;;;;10.47;4.87;;;;;;;;;;4955480;28;20490;-72
2024/01/21 12:05:02;;;;;;;8.17;3.83;;;;;;;;;;4995324;28;20442;-68
2024/01/21 12:08:05;;;;;;;8.70;4.33;;;;;;;;;;4965589;28;20436;-68
2024/01/21 12:10:57;;;;;;;5.80;3.10;;;;;;;;;;4982690;28;20400;-68
2024/01/21 12:14:06;;;;;;;12.77;5.07;;;;;;;;;;4976716;28;20552;-68
2024/01/21 12:17:13;;;;;;;8.87;5.30;;;;;;;;;;5041245;28;20456;-68
2024/01/21 12:24:20;;;;;;;13.53;5.90;;;;;;;;;;5028735;28;20438;-68
2024/01/21 12:31:43;;;;;;;5.97;3.00;;;;;;;;;;5022384;28;20488;-68
2024/01/21 12:34:45;;;;;;;;;;;;;;;;;;;;;
2024/01/21 12:37:42;;;;;;;9.73;4.43;;;;;;;;;;5027283;28;20516;-68
2024/01/21 12:40:48;;;;;;;12.63;4.20;;;;;;;;;;5013458;28;20476;-67
2024/01/21 12:44:24;;;;;;;;;;;;;;;;;;;;;
2024/01/21 12:47:43;;;;;;;11.47;5.63;;;;;;;;;;5033946;28;20434;-68
2024/01/21 12:51:20;;;;;;;9.50;3.80;;;;;;;;;;5009015;28;20470;-68
2024/01/21 12:57:28;;;;;;;8.87;3.60;;;;;;;;;;5033180;28;20427;-67
2024/01/21 13:07:16;;;;;;;9.50;4.33;;;;;;;;;;5059085;28;20436;-67
2024/01/21 13:09:43;;;;;;;6.10;3.30;;;;;;;;;;5041266;28;20860;-68
2024/01/21 13:12:10;;;;;;;7.00;3.90;;;;;;;;;;5083340;28;20462;-67
2024/01/21 13:14:37;;;;;;;6.90;4.63;;;;;;;;;;5077686;28;20431;-68
2024/01/21 13:17:04;;;;;;;10.30;4.07;;;;;;;;;;5044747;28;20474;-68
2024/01/21 13:19:31;;;;;;;6.47;3.17;;;;;;;;;;5077686;28;20460;-67
2024/01/21 13:22:05;;;;;;;10.57;4.63;;;;;;;;;;5078357;28;20435;-67
2024/01/21 13:24:49;;;;;;;10.17;5.63;;;;;;;;;;5095368;28;20377;-68
2024/01/21 13:27:26;;;;;;;11.33;5.53;;;;;;;;;;5095498;28;20900;-68
2024/01/21 13:32:56;;;;;;;8.93;3.63;;;;;;;;;;5073432;28;20424;-67
2024/01/21 13:35:41;;;;;;;9.57;3.17;;;;;;;;;;5074986;28;20917;-68
2024/01/21 13:38:09;;;;;;;11.53;4.60;;;;;;;;;;5041005;28;20428;-67
2024/01/21 13:40:53;;;;;;;7.47;3.67;;;;;;;;;;5075009;28;20424;-67
2024/01/21 13:43:20;;;;;;;8.63;4.33;;;;;;;;;;5074672;28;20416;-67
2024/01/21 13:45:47;;;;;;;9.57;4.43;;;;;;;;;;5057174;28;20429;-67
2024/01/21 13:48:14;;;;;;;11.27;4.90;;;;;;;;;;5057486;28;20416;-67
2024/01/21 13:50:41;;;;;;;6.80;3.53;;;;;;;;;;5053369;28;20530;-67
2024/01/21 13:53:14;;;;;;;11.37;4.60;;;;;;;;;;5076831;28;20457;-67
2024/01/21 13:55:42;;;;;;;7.27;3.97;;;;;;;;;;5060506;28;20440;-68
2024/01/21 13:58:09;;;;;;;7.47;2.53;;;;;;;;;;5060321;28;20511;-67
2024/01/21 14:00:36;;;;;;;6.87;3.93;;;;;;;;;;5076738;28;20518;-68
2024/01/21 14:03:03;;;;;;;8.13;4.47;;;;;;;;;;5076931;28;20511;-67
2024/01/21 14:05:30;;;;;;;8.27;3.97;;;;;;;;;;5059263;28;20424;-67
2024/01/21 14:07:57;;;;;;;10.10;4.17;;;;;;;;;;5094750;28;20462;-67
2024/01/21 14:10:24;;;;;;;10.40;4.83;;;;;;;;;;5059953;28;20822;-68
2024/01/21 14:13:08;;;;;;;6.83;3.57;;;;;;;;;;5094488;28;20379;-67
2024/01/21 14:15:35;;;;;;;12.90;5.17;;;;;;;;;;5076395;28;20525;-67
2024/01/21 14:18:02;;;;;;;13.43;4.97;;;;;;;;;;5095571;28;20414;-68
2024/01/21 14:20:29;;;;;;;8.13;3.97;;;;;;;;;;5094386;28;20558;-68
2024/01/21 14:22:56;;;;;;;5.60;2.63;;;;;;;;;;5042589;28;20456;-68
2024/01/21 14:25:23;;;;;;;12.27;4.83;;;;;;;;;;5076876;28;20493;-67
2024/01/21 14:27:51;;;;;;;7.40;2.87;;;;;;;;;;5060096;28;20890;-68
2024/01/21 14:30:22;;;;;;;9.77;4.97;;;;;;;;;;5095149;28;20485;-67
2024/01/21 14:32:49;;;;;;;6.20;3.20;;;;;;;;;;5043525;28;20913;-67
2024/01/21 14:35:16;;;;;;;12.87;5.27;;;;;;;;;;5064292;28;20455;-67
2024/01/21 14:37:43;;;;;;;11.53;4.77;;;;;;;;;;5056356;28;20448;-67
2024/01/21 14:40:10;;;;;;;9.60;3.43;;;;;;;;;;5073913;28;20460;-67
2024/01/21 14:42:37;;;;;;;7.30;3.90;;;;;;;;;;5024180;28;20941;-67
2024/01/21 14:45:04;;;;;;;3.70;1.97;;;;;;;;;;5073994;28;20412;-67
2024/01/21 14:47:31;;;;;;;3.80;2.20;;;;;;;;;;5039907;28;20836;-67
2024/01/21 14:49:58;;;;;;;5.40;2.47;;;;;;;;;;5073813;28;20485;-67
2024/01/21 14:52:25;;;;;;;6.57;3.07;;;;;;;;;;5056168;28;20432;-67
2024/01/21 14:54:52;;;;;;;7.70;3.87;;;;;;;;;;5073814;28;20423;-67
2024/01/21 14:57:19;;;;;;;7.87;3.67;;;;;;;;;;5056226;28;20444;-67
2024/01/21 14:59:45;;;;;;;7.23;3.23;;;;;;;;;;5039316;28;20434;-67
2024/01/21 15:02:30;;;;;;;7.00;2.67;;;;;;;;;;5073608;28;20385;-67
2024/01/21 15:04:56;;;;;;;8.23;3.50;;;;;;;;;;5073366;28;20731;-68
2024/01/21 15:07:23;;;;;;;7.90;4.00;;;;;;;;;;5073658;28;20501;-68
2024/01/21 15:09:50;;;;;;;9.10;4.33;;;;;;;;;;5055656;28;20524;-68
2024/01/21 15:12:17;;;;;;;4.47;2.43;;;;;;;;;;5073646;28;20474;-67
2024/01/21 15:14:47;;;;;;;11.37;3.90;;;;;;;;;;5072337;28;20790;-67
2024/01/21 15:17:13;;;;;;;7.67;4.20;;;;;;;;;;5055488;28;20554;-67
2024/01/21 15:19:43;;;;;;;9.33;3.70;;;;;;;;;;5055776;28;20428;-68
2024/01/21 15:22:11;;;;;;;8.33;4.13;;;;;;;;;;5056137;28;20824;-68
2024/01/21 15:24:38;;;;;;;14.90;2.70;;;;;;;;;;5055796;28;20799;-67
2024/01/21 15:27:05;;;;;;;7.10;3.60;;;;;;;;;;5039056;28;20438;-67
2024/01/21 15:29:31;;;;;;;5.77;2.47;;;;;;;;;;5066993;28;20436;-67
2024/01/21 15:31:58;;;;;;;8.87;4.07;;;;;;;;;;5073429;28;20443;-67
2024/01/21 15:34:24;;;;;;;7.67;3.57;;;;;;;;;;5073163;28;20781;-67
2024/01/21 15:37:09;;;;;;;11.53;4.37;;;;;;;;;;5058154;28;20766;-67
2024/01/21 15:39:36;;;;;;;7.63;3.33;;;;;;;;;;5073406;28;20794;-67
2024/01/21 15:42:20;;;;;;;9.63;4.43;;;;;;;;;;5073501;28;20439;-67
2024/01/21 15:44:46;;;;;;;13.73;5.23;;;;;;;;;;5072410;28;20484;-68
2024/01/21 15:47:33;;;;;;;11.77;5.00;;;;;;;;;;5073672;28;20477;-67
2024/01/21 15:49:59;;;;;;;11.67;4.97;;;;;;;;;;5039020;28;20407;-67
2024/01/21 15:52:43;;;;;;;11.23;3.90;;;;;;;;;;5073283;28;20411;-67
2024/01/21 15:55:13;;;;;;;27.20;8.50;;;;;;;;;;5038960;28;20434;-67
2024/01/21 15:57:40;;;;;;;9.57;4.33;;;;;;;;;;5055523;28;20428;-67
2024/01/21 16:00:07;;;;;;;9.97;3.50;;;;;;;;;;5055958;28;20798;-67
2024/01/21 16:02:34;;;;;;;9.27;3.93;;;;;;;;;;5073456;28;20440;-67
2024/01/21 16:08:55;;;;;;;10.90;4.90;;;;;;;;;;5072943;28;20360;-67
2024/01/21 16:19:27;;;;;;;5.90;2.43;;;;;;;;;;5075263;28;20520;-67
2024/01/21 16:21:55;;;;;;;10.33;4.60;;;;;;;;;;5042221;28;20527;-67
2024/01/21 16:24:22;;;;;;;24.63;10.10;;;;;;;;;;5058490;28;20444;-67
2024/01/21 16:26:49;;;;;;;18.70;8.10;;;;;;;;;;5058315;28;20442;-67
2024/01/21 16:29:16;;;;;;;11.33;5.40;;;;;;;;;;5058418;28;20440;-70
2024/01/21 16:31:43;;;;;;;13.37;5.40;;;;;;;;;;5076112;28;20424;-69
2024/01/21 16:34:10;;;;;;;7.93;4.10;;;;;;;;;;5088391;28;20451;-67
2024/01/21 16:36:38;;;;;;;13.13;5.33;;;;;;;;;;5061827;28;20469;-67
2024/01/21 16:39:07;;;;;;;10.80;4.90;;;;;;;;;;5078842;28;20415;-66
2024/01/21 16:41:34;;;;;;;11.67;5.37;;;;;;;;;;5096001;28;20532;-66
2024/01/21 16:44:03;;;;;;;15.63;5.57;;;;;;;;;;5061664;28;20756;-67
2024/01/21 16:46:48;;;;;;;17.73;6.47;;;;;;;;;;5063946;28;20415;-67
2024/01/21 16:49:17;;;;;;;15.20;6.03;;;;;;;;;;5060944;28;20424;-66
2024/01/21 16:51:58;;;;;;;14.13;5.43;;;;;;;;;;5096222;28;20815;-67